International Virtual Aviation Organisation

Russian Federation and Kazakhstan MCD

 
UHSS 271600Z 07001MPS 9999 BKN040CB M08/M10 Q1015 RMK QFE760/1013
QNH:(hPa/inHg/mmHg)1015 / 29.97 / 761
QFE:(hPa/inHg/mmHg)1013 / 29.91 / 760
Temperature-8
Dew Point-10
Visibility> 10000
Weather
Cloud CoverBKN (4000);
Transition Height1600 m./5400 ft.
Transition LevelFL60
SQUAWK